Time;durP1;ratioP1;P1;durP2;ratioP2;P2;SDS_P1;SDS_P2;PMS_P1;PMS_P2;Temp;Humidity;BMP_temperature;BMP_pressure;BME280_temperature;BME280_humidity;BME280_pressure;Samples;Min_cycle;Max_cycle;Signal;HPM_P1;HPM_P2
2022/02/11 17:12:26;;;;;;;8.90;2.03;;;6.20;99.90;;;;;;5079583;27;20160;-60
2022/02/11 17:14:53;;;;;;;12.77;2.47;;;6.00;99.90;;;;;;5076420;28;20507;-62
2022/02/11 17:17:18;;;;;;;9.35;2.35;;;6.10;99.90;;;;;;5076218;28;20036;-60
2022/02/11 17:19:44;;;;;;;17.63;2.10;;;6.00;99.90;;;;;;5076461;28;20044;-64
2022/02/11 17:22:09;;;;;;;13.43;2.75;;;6.00;99.90;;;;;;5077924;28;20120;-62
2022/02/11 17:24:35;;;;;;;7.53;1.80;;;6.00;99.90;;;;;;5076389;28;20028;-62
2022/02/11 17:27:01;;;;;;;13.90;2.38;;;6.00;99.90;;;;;;5083400;28;20021;-63
2022/02/11 17:29:26;;;;;;;12.85;3.00;;;6.10;99.90;;;;;;5081754;28;20083;-63
2022/02/11 17:31:52;;;;;;;6.32;1.90;;;6.00;99.90;;;;;;5079808;28;20024;-63
2022/02/11 17:34:18;;;;;;;11.85;3.10;;;6.00;99.90;;;;;;5073387;28;20035;-66
2022/02/11 17:36:43;;;;;;;7.65;2.03;;;6.00;99.90;;;;;;5078236;28;20762;-62
2022/02/11 17:39:09;;;;;;;9.35;1.90;;;5.90;99.90;;;;;;5076573;28;20093;-64
2022/02/11 17:41:35;;;;;;;11.30;2.28;;;5.90;99.90;;;;;;5075765;28;20044;-63
2022/02/11 17:44:02;;;;;;;13.55;2.10;;;5.90;99.90;;;;;;5073340;28;20946;-60
2022/02/11 17:46:30;;;;;;;12.60;3.13;;;5.80;99.90;;;;;;5078444;28;20440;-60
2022/02/11 17:48:56;;;;;;;12.68;2.50;;;5.80;99.90;;;;;;5077188;28;20543;-60
2022/02/11 17:51:22;;;;;;;7.80;2.15;;;5.80;99.90;;;;;;5078814;28;20043;-59
2022/02/11 17:53:48;;;;;;;9.73;2.35;;;5.60;99.90;;;;;;5077020;28;20029;-63
2022/02/11 17:56:13;;;;;;;13.00;2.30;;;5.50;99.90;;;;;;5076543;28;20052;-62
2022/02/11 17:58:39;;;;;;;12.18;1.90;;;5.30;99.90;;;;;;5072205;28;20569;-63
2022/02/11 18:01:05;;;;;;;12.60;2.65;;;5.10;99.90;;;;;;5078006;28;20039;-61
2022/02/11 18:03:31;;;;;;;7.57;1.98;;;5.00;99.90;;;;;;5080116;28;20028;-63
2022/02/11 18:05:57;;;;;;;11.98;2.55;;;4.90;99.90;;;;;;5074273;28;20031;-63
2022/02/11 18:08:25;;;;;;;12.50;2.42;;;4.80;99.90;;;;;;5081914;28;20043;-63
2022/02/11 18:10:55;;;;;;;12.50;2.92;;;4.70;99.90;;;;;;5072510;28;20741;-65
2022/02/11 18:13:22;;;;;;;9.20;2.65;;;4.50;99.90;;;;;;5073920;28;20520;-63
2022/02/11 18:15:48;;;;;;;13.07;2.75;;;4.40;99.90;;;;;;5070553;28;20047;-63
2022/02/11 18:18:14;;;;;;;12.65;2.30;;;4.30;99.90;;;;;;5070169;28;20051;-65
2022/02/11 18:20:39;;;;;;;13.65;2.30;;;4.20;99.90;;;;;;5073912;28;20036;-63
2022/02/11 18:23:05;;;;;;;19.58;3.38;;;4.10;99.90;;;;;;5070967;28;20021;-64
2022/02/11 18:25:33;;;;;;;13.60;2.75;;;3.90;99.90;;;;;;5057551;28;20064;-64
2022/02/11 18:28:00;;;;;;;12.23;2.38;;;4.00;99.90;;;;;;5053910;28;20024;-63
2022/02/11 18:30:27;;;;;;;15.60;2.80;;;4.00;99.90;;;;;;5067799;28;20032;-63
2022/02/11 18:32:53;;;;;;;7.97;1.90;;;4.00;99.90;;;;;;5066112;28;20674;-63
2022/02/11 18:35:19;;;;;;;14.52;2.88;;;3.90;99.90;;;;;;5065632;28;20040;-63
2022/02/11 18:37:44;;;;;;;14.45;3.17;;;3.90;99.90;;;;;;5056793;28;20052;-62
2022/02/11 18:40:14;;;;;;;10.00;2.13;;;3.90;99.90;;;;;;5060737;28;20482;-63
2022/02/11 18:42:40;;;;;;;18.88;2.75;;;3.90;99.90;;;;;;5058016;28;20029;-63
2022/02/11 18:45:07;;;;;;;19.05;3.55;;;3.90;99.90;;;;;;5065332;28;20035;-63
2022/02/11 18:47:33;;;;;;;16.05;2.88;;;3.90;99.90;;;;;;5055962;28;20025;-63
2022/02/11 18:49:58;;;;;;;12.00;2.80;;;3.80;99.90;;;;;;5062649;28;20375;-64
2022/02/11 18:52:27;;;;;;;8.05;2.28;;;3.70;99.90;;;;;;5068165;28;20499;-63
2022/02/11 18:54:53;;;;;;;14.02;2.22;;;3.60;99.90;;;;;;5058321;28;20028;-64
2022/02/11 18:57:18;;;;;;;22.05;2.53;;;3.40;99.90;;;;;;5062197;28;20481;-63
2022/02/11 19:02:28;;;;;;;12.25;2.85;;;3.20;99.90;;;;;;5060358;28;20043;-61
2022/02/11 19:04:54;;;;;;;16.08;2.25;;;3.20;99.90;;;;;;5062064;28;20522;-63
2022/02/11 19:07:20;;;;;;;11.02;2.47;;;3.10;99.90;;;;;;5070640;28;20654;-62
2022/02/11 19:09:46;;;;;;;15.07;2.70;;;3.00;99.90;;;;;;5068542;28;20070;-61
2022/02/11 19:12:12;;;;;;;12.80;2.75;;;3.00;99.90;;;;;;5062251;28;20032;-62
2022/02/11 19:14:38;;;;;;;13.15;2.30;;;2.90;99.90;;;;;;5068356;28;20036;-61
2022/02/11 19:17:04;;;;;;;16.05;2.30;;;2.70;99.90;;;;;;5060057;28;20119;-62
2022/02/11 19:19:29;;;;;;;11.55;2.95;;;2.70;99.90;;;;;;5055440;28;20112;-59
2022/02/11 19:21:55;;;;;;;13.98;2.38;;;2.70;99.90;;;;;;5068730;28;20051;-62
2022/02/11 19:24:20;;;;;;;14.18;2.15;;;2.70;99.90;;;;;;5064719;28;20078;-61
2022/02/11 19:26:46;;;;;;;22.08;4.68;;;2.80;99.90;;;;;;5063048;28;20041;-61
2022/02/11 19:29:13;;;;;;;14.50;2.10;;;2.80;99.90;;;;;;5066744;28;20024;-60
2022/02/11 19:31:40;;;;;;;10.75;2.17;;;2.80;99.90;;;;;;5061261;28;20025;-60
2022/02/11 19:34:06;;;;;;;16.45;3.55;;;2.80;99.90;;;;;;5066566;28;20056;-61
